sensor_id;sensor_type;location;lat;lon;timestamp;temperature;humidity
58469;DHT22;44257;44.804;10.220;2022-09-12T00:01:37;18.90;99.90
58469;DHT22;44257;44.804;10.220;2022-09-12T00:04:03;18.90;99.90
58469;DHT22;44257;44.804;10.220;2022-09-12T00:06:31;18.80;99.90
58469;DHT22;44257;44.804;10.220;2022-09-12T00:09:00;18.80;99.90
58469;DHT22;44257;44.804;10.220;2022-09-12T00:11:27;18.80;99.90
58469;DHT22;44257;44.804;10.220;2022-09-12T00:14:00;18.80;99.90
58469;DHT22;44257;44.804;10.220;2022-09-12T00:16:28;18.80;99.90
58469;DHT22;44257;44.804;10.220;2022-09-12T00:18:54;18.80;99.90
58469;DHT22;44257;44.804;10.220;2022-09-12T00:21:21;18.80;99.90
58469;DHT22;44257;44.804;10.220;2022-09-12T00:23:50;18.80;99.90
58469;DHT22;44257;44.804;10.220;2022-09-12T00:26:18;18.80;99.90
58469;DHT22;44257;44.804;10.220;2022-09-12T00:28:45;18.70;99.90
58469;DHT22;44257;44.804;10.220;2022-09-12T00:31:15;18.70;99.90
58469;DHT22;44257;44.804;10.220;2022-09-12T00:33:41;18.70;99.90
58469;DHT22;44257;44.804;10.220;2022-09-12T00:36:13;18.70;99.90
58469;DHT22;44257;44.804;10.220;2022-09-12T00:38:40;18.70;99.90
58469;DHT22;44257;44.804;10.220;2022-09-12T00:41:33;18.70;99.90
58469;DHT22;44257;44.804;10.220;2022-09-12T00:44:38;18.60;99.90
58469;DHT22;44257;44.804;10.220;2022-09-12T00:49:28;18.50;99.90
58469;DHT22;44257;44.804;10.220;2022-09-12T00:52:04;18.40;99.90
58469;DHT22;44257;44.804;10.220;2022-09-12T00:57:42;18.40;99.90
58469;DHT22;44257;44.804;10.220;2022-09-12T01:00:12;18.30;99.90
58469;DHT22;44257;44.804;10.220;2022-09-12T01:02:44;18.30;99.90
58469;DHT22;44257;44.804;10.220;2022-09-12T01:05:12;18.20;99.90
58469;DHT22;44257;44.804;10.220;2022-09-12T01:07:39;18.20;99.90
58469;DHT22;44257;44.804;10.220;2022-09-12T01:10:08;18.20;99.90
58469;DHT22;44257;44.804;10.220;2022-09-12T01:12:37;18.20;99.90
58469;DHT22;44257;44.804;10.220;2022-09-12T01:15:05;18.10;99.90
58469;DHT22;44257;44.804;10.220;2022-09-12T01:17:47;18.20;99.90
58469;DHT22;44257;44.804;10.220;2022-09-12T01:31:33;18.20;99.90
58469;DHT22;44257;44.804;10.220;2022-09-12T01:34:12;18.10;99.90
58469;DHT22;44257;44.804;10.220;2022-09-12T01:36:47;18.10;99.90
58469;DHT22;44257;44.804;10.220;2022-09-12T01:47:05;17.90;99.90
58469;DHT22;44257;44.804;10.220;2022-09-12T01:50:04;17.90;99.90
58469;DHT22;44257;44.804;10.220;2022-09-12T01:55:23;17.80;99.90
58469;DHT22;44257;44.804;10.220;2022-09-12T01:58:01;17.70;99.90
58469;DHT22;44257;44.804;10.220;2022-09-12T02:00:30;17.70;99.90
58469;DHT22;44257;44.804;10.220;2022-09-12T02:03:06;17.70;99.90
58469;DHT22;44257;44.804;10.220;2022-09-12T02:06:08;17.70;99.90
58469;DHT22;44257;44.804;10.220;2022-09-12T02:08:38;17.70;99.90
58469;DHT22;44257;44.804;10.220;2022-09-12T02:11:10;17.60;99.90
58469;DHT22;44257;44.804;10.220;2022-09-12T02:16:39;17.50;99.90
58469;DHT22;44257;44.804;10.220;2022-09-12T02:19:22;17.50;99.90
58469;DHT22;44257;44.804;10.220;2022-09-12T02:21:54;17.50;99.90
58469;DHT22;44257;44.804;10.220;2022-09-12T02:24:23;17.40;99.90
58469;DHT22;44257;44.804;10.220;2022-09-12T02:26:54;17.40;99.90
58469;DHT22;44257;44.804;10.220;2022-09-12T02:29:21;17.30;99.90
58469;DHT22;44257;44.804;10.220;2022-09-12T02:31:51;17.30;99.90
58469;DHT22;44257;44.804;10.220;2022-09-12T02:34:45;17.30;99.90
58469;DHT22;44257;44.804;10.220;2022-09-12T02:38:08;17.30;99.90
58469;DHT22;44257;44.804;10.220;2022-09-12T02:40:36;17.30;99.90
58469;DHT22;44257;44.804;10.220;2022-09-12T02:43:04;17.40;99.90
58469;DHT22;44257;44.804;10.220;2022-09-12T02:45:31;17.40;99.90
58469;DHT22;44257;44.804;10.220;2022-09-12T02:48:04;17.40;99.90
58469;DHT22;44257;44.804;10.220;2022-09-12T02:50:31;17.40;99.90
58469;DHT22;44257;44.804;10.220;2022-09-12T02:52:57;17.40;99.90
58469;DHT22;44257;44.804;10.220;2022-09-12T02:55:30;17.40;99.90
58469;DHT22;44257;44.804;10.220;2022-09-12T02:57:56;17.30;99.90
58469;DHT22;44257;44.804;10.220;2022-09-12T03:00:23;17.30;99.90
58469;DHT22;44257;44.804;10.220;2022-09-12T03:06:29;17.20;99.90
58469;DHT22;44257;44.804;10.220;2022-09-12T03:16:40;17.10;99.90
58469;DHT22;44257;44.804;10.220;2022-09-12T03:22:17;17.10;99.90
58469;DHT22;44257;44.804;10.220;2022-09-12T03:24:53;17.00;99.90
58469;DHT22;44257;44.804;10.220;2022-09-12T03:27:36;17.00;99.90
58469;DHT22;44257;44.804;10.220;2022-09-12T03:30:04;16.90;99.90
58469;DHT22;44257;44.804;10.220;2022-09-12T03:35:10;17.00;99.90
58469;DHT22;44257;44.804;10.220;2022-09-12T03:37:36;16.90;99.90
58469;DHT22;44257;44.804;10.220;2022-09-12T03:40:06;16.90;99.90
58469;DHT22;44257;44.804;10.220;2022-09-12T03:42:32;16.90;99.90
58469;DHT22;44257;44.804;10.220;2022-09-12T03:44:58;16.90;99.90
58469;DHT22;44257;44.804;10.220;2022-09-12T03:47:24;16.90;99.90
58469;DHT22;44257;44.804;10.220;2022-09-12T03:49:50;16.90;99.90
58469;DHT22;44257;44.804;10.220;2022-09-12T03:52:18;17.00;99.90
58469;DHT22;44257;44.804;10.220;2022-09-12T03:54:43;17.00;99.90
58469;DHT22;44257;44.804;10.220;2022-09-12T03:57:09;17.00;99.90
58469;DHT22;44257;44.804;10.220;2022-09-12T03:59:35;16.90;99.90
58469;DHT22;44257;44.804;10.220;2022-09-12T04:02:01;17.00;99.90
58469;DHT22;44257;44.804;10.220;2022-09-12T04:04:27;16.90;99.90
58469;DHT22;44257;44.804;10.220;2022-09-12T04:06:53;16.90;99.90
58469;DHT22;44257;44.804;10.220;2022-09-12T04:09:19;16.90;99.90
58469;DHT22;44257;44.804;10.220;2022-09-12T04:11:44;16.90;99.90
58469;DHT22;44257;44.804;10.220;2022-09-12T04:14:10;16.80;99.90
58469;DHT22;44257;44.804;10.220;2022-09-12T04:16:36;16.80;99.90
58469;DHT22;44257;44.804;10.220;2022-09-12T04:19:02;16.80;99.90
58469;DHT22;44257;44.804;10.220;2022-09-12T04:21:28;16.80;99.90
58469;DHT22;44257;44.804;10.220;2022-09-12T04:23:54;16.70;99.90
58469;DHT22;44257;44.804;10.220;2022-09-12T04:26:20;16.70;99.90
58469;DHT22;44257;44.804;10.220;2022-09-12T04:28:46;16.70;99.90
58469;DHT22;44257;44.804;10.220;2022-09-12T04:31:17;16.70;99.90
58469;DHT22;44257;44.804;10.220;2022-09-12T04:33:45;16.70;99.90
58469;DHT22;44257;44.804;10.220;2022-09-12T04:36:14;16.70;99.90
58469;DHT22;44257;44.804;10.220;2022-09-12T04:38:42;16.60;99.90
58469;DHT22;44257;44.804;10.220;2022-09-12T04:41:12;16.60;99.90
58469;DHT22;44257;44.804;10.220;2022-09-12T04:43:39;16.60;99.90
58469;DHT22;44257;44.804;10.220;2022-09-12T04:46:10;16.60;99.90
58469;DHT22;44257;44.804;10.220;2022-09-12T04:48:37;16.60;99.90
58469;DHT22;44257;44.804;10.220;2022-09-12T04:51:14;16.50;99.90
58469;DHT22;44257;44.804;10.220;2022-09-12T04:53:41;16.50;99.90
58469;DHT22;44257;44.804;10.220;2022-09-12T04:56:10;16.50;99.90
58469;DHT22;44257;44.804;10.220;2022-09-12T04:58:37;16.40;99.90
58469;DHT22;44257;44.804;10.220;2022-09-12T05:03:36;16.30;99.90
58469;DHT22;44257;44.804;10.220;2022-09-12T05:06:07;16.30;99.90
58469;DHT22;44257;44.804;10.220;2022-09-12T05:08:34;16.40;99.90
58469;DHT22;44257;44.804;10.220;2022-09-12T05:11:05;16.40;99.90
58469;DHT22;44257;44.804;10.220;2022-09-12T05:13:32;16.50;99.90
58469;DHT22;44257;44.804;10.220;2022-09-12T05:16:00;16.50;99.90
58469;DHT22;44257;44.804;10.220;2022-09-12T05:18:27;16.60;99.90
58469;DHT22;44257;44.804;10.220;2022-09-12T05:20:53;16.70;99.90
58469;DHT22;44257;44.804;10.220;2022-09-12T05:23:20;16.80;99.90
58469;DHT22;44257;44.804;10.220;2022-09-12T05:25:52;16.70;99.90
58469;DHT22;44257;44.804;10.220;2022-09-12T05:28:21;16.80;99.90
58469;DHT22;44257;44.804;10.220;2022-09-12T05:30:47;16.80;99.90
58469;DHT22;44257;44.804;10.220;2022-09-12T05:33:14;16.80;99.90
58469;DHT22;44257;44.804;10.220;2022-09-12T05:35:40;16.90;99.90
58469;DHT22;44257;44.804;10.220;2022-09-12T05:38:06;16.90;99.90
58469;DHT22;44257;44.804;10.220;2022-09-12T05:40:33;17.00;99.90
58469;DHT22;44257;44.804;10.220;2022-09-12T05:42:59;17.00;99.90
58469;DHT22;44257;44.804;10.220;2022-09-12T05:45:25;17.00;99.90
58469;DHT22;44257;44.804;10.220;2022-09-12T05:47:52;17.10;99.90
58469;DHT22;44257;44.804;10.220;2022-09-12T05:50:21;17.20;99.90
58469;DHT22;44257;44.804;10.220;2022-09-12T05:52:47;17.30;99.90
58469;DHT22;44257;44.804;10.220;2022-09-12T05:55:12;17.50;99.90
58469;DHT22;44257;44.804;10.220;2022-09-12T05:57:38;17.70;99.90
58469;DHT22;44257;44.804;10.220;2022-09-12T06:00:05;18.00;99.90
58469;DHT22;44257;44.804;10.220;2022-09-12T06:02:37;18.20;99.90
58469;DHT22;44257;44.804;10.220;2022-09-12T06:05:04;18.50;99.90
58469;DHT22;44257;44.804;10.220;2022-09-12T06:07:30;18.70;99.90
58469;DHT22;44257;44.804;10.220;2022-09-12T06:09:57;18.90;99.90
58469;DHT22;44257;44.804;10.220;2022-09-12T06:12:24;19.10;99.90
58469;DHT22;44257;44.804;10.220;2022-09-12T06:14:51;19.20;99.90
58469;DHT22;44257;44.804;10.220;2022-09-12T06:17:18;19.40;99.90
58469;DHT22;44257;44.804;10.220;2022-09-12T06:19:44;19.50;99.90
58469;DHT22;44257;44.804;10.220;2022-09-12T06:22:10;19.60;99.90
58469;DHT22;44257;44.804;10.220;2022-09-12T06:24:36;19.60;99.90
58469;DHT22;44257;44.804;10.220;2022-09-12T06:27:02;19.50;99.90
58469;DHT22;44257;44.804;10.220;2022-09-12T06:29:28;19.50;99.90
58469;DHT22;44257;44.804;10.220;2022-09-12T06:31:54;19.30;99.90
58469;DHT22;44257;44.804;10.220;2022-09-12T06:34:19;19.30;99.90
58469;DHT22;44257;44.804;10.220;2022-09-12T06:36:47;19.30;99.90
58469;DHT22;44257;44.804;10.220;2022-09-12T06:39:21;19.40;99.90
58469;DHT22;44257;44.804;10.220;2022-09-12T06:41:48;19.50;99.90
58469;DHT22;44257;44.804;10.220;2022-09-12T06:44:16;19.50;99.90
58469;DHT22;44257;44.804;10.220;2022-09-12T06:46:44;19.50;99.90
58469;DHT22;44257;44.804;10.220;2022-09-12T06:49:10;19.50;99.90
58469;DHT22;44257;44.804;10.220;2022-09-12T06:51:36;19.50;99.90
58469;DHT22;44257;44.804;10.220;2022-09-12T06:54:03;19.50;99.90
58469;DHT22;44257;44.804;10.220;2022-09-12T06:56:30;19.50;99.90
58469;DHT22;44257;44.804;10.220;2022-09-12T06:58:57;19.50;99.90
58469;DHT22;44257;44.804;10.220;2022-09-12T07:01:30;19.70;99.90
58469;DHT22;44257;44.804;10.220;2022-09-12T07:04:00;19.70;99.90
58469;DHT22;44257;44.804;10.220;2022-09-12T07:06:29;19.70;99.90
58469;DHT22;44257;44.804;10.220;2022-09-12T07:08:59;19.70;99.90
58469;DHT22;44257;44.804;10.220;2022-09-12T07:11:28;19.90;99.90
58469;DHT22;44257;44.804;10.220;2022-09-12T07:13:58;20.10;99.90
58469;DHT22;44257;44.804;10.220;2022-09-12T07:16:24;20.20;99.90
58469;DHT22;44257;44.804;10.220;2022-09-12T07:18:51;20.40;99.90
58469;DHT22;44257;44.804;10.220;2022-09-12T07:21:17;20.50;99.90
58469;DHT22;44257;44.804;10.220;2022-09-12T07:23:45;20.60;99.90
58469;DHT22;44257;44.804;10.220;2022-09-12T07:26:13;20.60;99.90
58469;DHT22;44257;44.804;10.220;2022-09-12T07:28:39;20.60;99.90
58469;DHT22;44257;44.804;10.220;2022-09-12T07:31:14;20.60;99.90
58469;DHT22;44257;44.804;10.220;2022-09-12T07:33:41;20.70;99.90
58469;DHT22;44257;44.804;10.220;2022-09-12T07:36:09;21.00;99.90
58469;DHT22;44257;44.804;10.220;2022-09-12T07:38:37;21.00;99.90
58469;DHT22;44257;44.804;10.220;2022-09-12T07:41:20;21.20;99.90
58469;DHT22;44257;44.804;10.220;2022-09-12T07:43:50;21.30;99.90
58469;DHT22;44257;44.804;10.220;2022-09-12T07:46:16;21.50;99.90
58469;DHT22;44257;44.804;10.220;2022-09-12T07:48:42;21.50;99.90
58469;DHT22;44257;44.804;10.220;2022-09-12T07:51:11;21.60;99.90
58469;DHT22;44257;44.804;10.220;2022-09-12T07:53:40;21.70;99.90
58469;DHT22;44257;44.804;10.220;2022-09-12T07:56:09;21.80;99.90
58469;DHT22;44257;44.804;10.220;2022-09-12T07:58:36;21.90;99.90
58469;DHT22;44257;44.804;10.220;2022-09-12T08:01:07;22.00;99.90
58469;DHT22;44257;44.804;10.220;2022-09-12T08:03:37;22.10;99.90
58469;DHT22;44257;44.804;10.220;2022-09-12T08:06:04;22.40;99.90
58469;DHT22;44257;44.804;10.220;2022-09-12T08:08:30;22.70;99.90
58469;DHT22;44257;44.804;10.220;2022-09-12T08:10:57;22.90;99.90
58469;DHT22;44257;44.804;10.220;2022-09-12T08:13:25;23.10;99.90
58469;DHT22;44257;44.804;10.220;2022-09-12T08:15:51;23.20;99.90
58469;DHT22;44257;44.804;10.220;2022-09-12T08:18:21;23.30;99.90
58469;DHT22;44257;44.804;10.220;2022-09-12T08:20:46;23.30;99.90
58469;DHT22;44257;44.804;10.220;2022-09-12T08:23:12;23.30;99.90
58469;DHT22;44257;44.804;10.220;2022-09-12T08:25:38;23.30;99.90
58469;DHT22;44257;44.804;10.220;2022-09-12T08:28:04;23.30;99.90
58469;DHT22;44257;44.804;10.220;2022-09-12T08:30:30;23.40;99.90
58469;DHT22;44257;44.804;10.220;2022-09-12T08:32:56;23.50;99.90
58469;DHT22;44257;44.804;10.220;2022-09-12T08:35:22;23.50;99.90
58469;DHT22;44257;44.804;10.220;2022-09-12T08:37:48;23.60;99.90
58469;DHT22;44257;44.804;10.220;2022-09-12T08:40:16;23.70;99.90
58469;DHT22;44257;44.804;10.220;2022-09-12T08:43:00;23.80;99.90
58469;DHT22;44257;44.804;10.220;2022-09-12T08:45:35;23.70;99.90
58469;DHT22;44257;44.804;10.220;2022-09-12T08:48:03;23.70;99.90
58469;DHT22;44257;44.804;10.220;2022-09-12T08:50:30;23.80;99.90
58469;DHT22;44257;44.804;10.220;2022-09-12T08:53:12;24.00;99.90
58469;DHT22;44257;44.804;10.220;2022-09-12T08:55:57;24.10;99.90
58469;DHT22;44257;44.804;10.220;2022-09-12T08:58:26;24.40;99.90
58469;DHT22;44257;44.804;10.220;2022-09-12T09:06:54;24.90;99.90
58469;DHT22;44257;44.804;10.220;2022-09-12T09:18:01;25.20;98.70
58469;DHT22;44257;44.804;10.220;2022-09-12T09:20:45;25.20;98.50
58469;DHT22;44257;44.804;10.220;2022-09-12T09:23:26;25.20;98.70
58469;DHT22;44257;44.804;10.220;2022-09-12T09:26:05;25.00;98.60
58469;DHT22;44257;44.804;10.220;2022-09-12T09:28:53;24.80;99.20
58469;DHT22;44257;44.804;10.220;2022-09-12T09:31:21;24.90;99.20
58469;DHT22;44257;44.804;10.220;2022-09-12T09:33:53;25.20;99.60
58469;DHT22;44257;44.804;10.220;2022-09-12T09:36:33;25.50;99.90
58469;DHT22;44257;44.804;10.220;2022-09-12T09:39:26;25.70;98.60
58469;DHT22;44257;44.804;10.220;2022-09-12T09:44:53;26.20;99.50
58469;DHT22;44257;44.804;10.220;2022-09-12T09:47:20;26.60;97.60
58469;DHT22;44257;44.804;10.220;2022-09-12T09:49:46;26.60;96.60
58469;DHT22;44257;44.804;10.220;2022-09-12T09:52:19;26.40;96.90
58469;DHT22;44257;44.804;10.220;2022-09-12T09:54:59;26.40;96.70
58469;DHT22;44257;44.804;10.220;2022-09-12T10:00:30;26.40;97.60
58469;DHT22;44257;44.804;10.220;2022-09-12T10:05:47;26.80;96.30
58469;DHT22;44257;44.804;10.220;2022-09-12T10:08:39;27.00;97.50
58469;DHT22;44257;44.804;10.220;2022-09-12T10:11:16;27.20;97.50
58469;DHT22;44257;44.804;10.220;2022-09-12T10:13:58;27.30;96.90
58469;DHT22;44257;44.804;10.220;2022-09-12T10:18:56;27.70;96.40
58469;DHT22;44257;44.804;10.220;2022-09-12T10:21:30;27.90;96.10
58469;DHT22;44257;44.804;10.220;2022-09-12T10:24:27;28.00;94.70
58469;DHT22;44257;44.804;10.220;2022-09-12T10:27:20;28.20;94.30
58469;DHT22;44257;44.804;10.220;2022-09-12T10:32:25;28.20;93.50
58469;DHT22;44257;44.804;10.220;2022-09-12T10:34:57;28.10;94.40
58469;DHT22;44257;44.804;10.220;2022-09-12T10:37:32;28.10;93.80
58469;DHT22;44257;44.804;10.220;2022-09-12T10:39:59;27.90;94.40
58469;DHT22;44257;44.804;10.220;2022-09-12T10:45:36;28.10;93.90
58469;DHT22;44257;44.804;10.220;2022-09-12T10:50:47;28.10;93.30
58469;DHT22;44257;44.804;10.220;2022-09-12T10:53:19;28.00;93.50
58469;DHT22;44257;44.804;10.220;2022-09-12T11:00:57;27.70;95.20
58469;DHT22;44257;44.804;10.220;2022-09-12T11:12:23;28.90;93.70
58469;DHT22;44257;44.804;10.220;2022-09-12T11:15:17;29.00;92.20
58469;DHT22;44257;44.804;10.220;2022-09-12T11:46:05;29.60;91.50
58469;DHT22;44257;44.804;10.220;2022-09-12T11:51:21;29.90;90.80
58469;DHT22;44257;44.804;10.220;2022-09-12T11:54:02;30.00;90.00
58469;DHT22;44257;44.804;10.220;2022-09-12T11:56:30;30.10;91.10
58469;DHT22;44257;44.804;10.220;2022-09-12T11:59:14;30.20;88.00
58469;DHT22;44257;44.804;10.220;2022-09-12T12:01:43;30.20;88.30
58469;DHT22;44257;44.804;10.220;2022-09-12T12:04:15;30.20;86.50
58469;DHT22;44257;44.804;10.220;2022-09-12T12:09:14;29.70;85.50
58469;DHT22;44257;44.804;10.220;2022-09-12T12:12:01;29.60;84.00
58469;DHT22;44257;44.804;10.220;2022-09-12T12:14:45;29.50;83.80
58469;DHT22;44257;44.804;10.220;2022-09-12T12:17:22;29.40;87.30
58469;DHT22;44257;44.804;10.220;2022-09-12T12:20:03;29.60;88.00
58469;DHT22;44257;44.804;10.220;2022-09-12T12:22:29;29.70;84.00
58469;DHT22;44257;44.804;10.220;2022-09-12T12:27:52;30.00;88.40
58469;DHT22;44257;44.804;10.220;2022-09-12T12:36:00;30.30;84.10
58469;DHT22;44257;44.804;10.220;2022-09-12T12:43:53;30.40;81.30
58469;DHT22;44257;44.804;10.220;2022-09-12T12:46:25;30.30;81.50
58469;DHT22;44257;44.804;10.220;2022-09-12T12:49:05;30.40;79.00
58469;DHT22;44257;44.804;10.220;2022-09-12T12:51:47;30.20;81.20
58469;DHT22;44257;44.804;10.220;2022-09-12T12:54:46;30.20;83.10
58469;DHT22;44257;44.804;10.220;2022-09-12T12:57:31;30.50;83.80
58469;DHT22;44257;44.804;10.220;2022-09-12T13:00:00;30.70;82.30
58469;DHT22;44257;44.804;10.220;2022-09-12T13:02:39;30.80;80.00
58469;DHT22;44257;44.804;10.220;2022-09-12T13:05:18;30.80;80.10
58469;DHT22;44257;44.804;10.220;2022-09-12T13:07:46;30.80;79.10
58469;DHT22;44257;44.804;10.220;2022-09-12T13:10:26;30.90;82.80
58469;DHT22;44257;44.804;10.220;2022-09-12T13:12:56;31.00;77.90
58469;DHT22;44257;44.804;10.220;2022-09-12T13:18:23;31.20;79.60
58469;DHT22;44257;44.804;10.220;2022-09-12T13:21:26;31.30;78.40
58469;DHT22;44257;44.804;10.220;2022-09-12T13:24:12;31.50;76.30
58469;DHT22;44257;44.804;10.220;2022-09-12T13:26:42;31.70;76.70
58469;DHT22;44257;44.804;10.220;2022-09-12T13:29:22;31.70;77.00
58469;DHT22;44257;44.804;10.220;2022-09-12T13:31:54;31.60;75.80
58469;DHT22;44257;44.804;10.220;2022-09-12T13:34:33;31.40;74.00
58469;DHT22;44257;44.804;10.220;2022-09-12T13:39:48;31.00;73.10
58469;DHT22;44257;44.804;10.220;2022-09-12T13:45:14;30.80;77.10
58469;DHT22;44257;44.804;10.220;2022-09-12T13:47:46;30.90;77.90
58469;DHT22;44257;44.804;10.220;2022-09-12T13:50:52;31.00;74.70
58469;DHT22;44257;44.804;10.220;2022-09-12T13:53:22;31.00;73.90
58469;DHT22;44257;44.804;10.220;2022-09-12T13:55:51;31.00;74.20
58469;DHT22;44257;44.804;10.220;2022-09-12T13:58:22;31.00;75.90
58469;DHT22;44257;44.804;10.220;2022-09-12T14:01:14;31.00;75.30
58469;DHT22;44257;44.804;10.220;2022-09-12T14:06:26;30.90;75.40
58469;DHT22;44257;44.804;10.220;2022-09-12T14:08:54;30.90;74.40
58469;DHT22;44257;44.804;10.220;2022-09-12T14:11:28;30.80;74.30
58469;DHT22;44257;44.804;10.220;2022-09-12T14:13:55;30.60;74.30
58469;DHT22;44257;44.804;10.220;2022-09-12T14:16:22;30.40;74.60
58469;DHT22;44257;44.804;10.220;2022-09-12T14:18:50;30.50;74.80
58469;DHT22;44257;44.804;10.220;2022-09-12T14:21:33;30.70;76.00
58469;DHT22;44257;44.804;10.220;2022-09-12T14:24:00;31.10;75.10
58469;DHT22;44257;44.804;10.220;2022-09-12T14:26:32;31.20;73.70
58469;DHT22;44257;44.804;10.220;2022-09-12T14:29:00;31.40;72.80
58469;DHT22;44257;44.804;10.220;2022-09-12T14:31:30;31.20;73.30
58469;DHT22;44257;44.804;10.220;2022-09-12T14:36:41;31.30;74.00
58469;DHT22;44257;44.804;10.220;2022-09-12T14:39:39;31.40;72.70
58469;DHT22;44257;44.804;10.220;2022-09-12T14:42:14;31.10;72.50
58469;DHT22;44257;44.804;10.220;2022-09-12T14:44:50;31.00;73.50
58469;DHT22;44257;44.804;10.220;2022-09-12T14:47:25;31.00;75.90
58469;DHT22;44257;44.804;10.220;2022-09-12T14:49:52;31.20;76.20
58469;DHT22;44257;44.804;10.220;2022-09-12T14:52:28;31.10;73.70
58469;DHT22;44257;44.804;10.220;2022-09-12T14:55:03;31.00;73.60
58469;DHT22;44257;44.804;10.220;2022-09-12T14:57:31;30.90;75.40
58469;DHT22;44257;44.804;10.220;2022-09-12T15:02:40;31.00;73.80
58469;DHT22;44257;44.804;10.220;2022-09-12T15:07:43;31.00;75.30
58469;DHT22;44257;44.804;10.220;2022-09-12T15:10:36;31.20;75.80
58469;DHT22;44257;44.804;10.220;2022-09-12T15:15:38;31.20;72.10
58469;DHT22;44257;44.804;10.220;2022-09-12T15:18:05;31.10;72.50
58469;DHT22;44257;44.804;10.220;2022-09-12T15:20:32;31.00;72.90
58469;DHT22;44257;44.804;10.220;2022-09-12T15:22:58;31.00;74.10
58469;DHT22;44257;44.804;10.220;2022-09-12T15:25:24;31.00;73.60
58469;DHT22;44257;44.804;10.220;2022-09-12T15:27:51;31.00;72.70
58469;DHT22;44257;44.804;10.220;2022-09-12T15:30:17;30.90;74.80
58469;DHT22;44257;44.804;10.220;2022-09-12T15:32:43;30.90;75.50
58469;DHT22;44257;44.804;10.220;2022-09-12T15:37:42;30.80;75.00
58469;DHT22;44257;44.804;10.220;2022-09-12T15:40:10;30.80;75.30
58469;DHT22;44257;44.804;10.220;2022-09-12T15:42:36;30.80;74.90
58469;DHT22;44257;44.804;10.220;2022-09-12T15:45:24;30.80;75.30
58469;DHT22;44257;44.804;10.220;2022-09-12T15:47:51;30.70;75.40
58469;DHT22;44257;44.804;10.220;2022-09-12T15:50:17;30.50;73.80
58469;DHT22;44257;44.804;10.220;2022-09-12T15:52:44;30.30;74.10
58469;DHT22;44257;44.804;10.220;2022-09-12T15:55:21;30.10;74.20
58469;DHT22;44257;44.804;10.220;2022-09-12T15:57:47;30.00;76.60
58469;DHT22;44257;44.804;10.220;2022-09-12T16:00:15;29.90;76.50
58469;DHT22;44257;44.804;10.220;2022-09-12T16:02:43;29.80;76.30
58469;DHT22;44257;44.804;10.220;2022-09-12T16:05:18;29.60;75.60
58469;DHT22;44257;44.804;10.220;2022-09-12T16:07:44;29.40;75.60
58469;DHT22;44257;44.804;10.220;2022-09-12T16:10:14;29.30;76.10
58469;DHT22;44257;44.804;10.220;2022-09-12T16:12:41;29.10;76.00
58469;DHT22;44257;44.804;10.220;2022-09-12T16:15:11;29.00;78.30
58469;DHT22;44257;44.804;10.220;2022-09-12T16:17:38;28.90;79.20
58469;DHT22;44257;44.804;10.220;2022-09-12T16:20:04;28.90;78.10
58469;DHT22;44257;44.804;10.220;2022-09-12T16:22:30;28.70;77.60
58469;DHT22;44257;44.804;10.220;2022-09-12T16:24:56;28.60;77.90
58469;DHT22;44257;44.804;10.220;2022-09-12T16:27:22;28.50;78.30
58469;DHT22;44257;44.804;10.220;2022-09-12T16:29:48;28.40;78.10
58469;DHT22;44257;44.804;10.220;2022-09-12T16:32:14;28.30;78.50
58469;DHT22;44257;44.804;10.220;2022-09-12T16:34:39;28.20;79.50
58469;DHT22;44257;44.804;10.220;2022-09-12T16:37:05;28.10;79.50
58469;DHT22;44257;44.804;10.220;2022-09-12T16:39:31;28.10;82.00
58469;DHT22;44257;44.804;10.220;2022-09-12T16:41:58;28.00;82.90
58469;DHT22;44257;44.804;10.220;2022-09-12T16:44:24;27.90;82.10
58469;DHT22;44257;44.804;10.220;2022-09-12T16:46:51;27.90;83.00
58469;DHT22;44257;44.804;10.220;2022-09-12T16:49:17;27.80;83.60
58469;DHT22;44257;44.804;10.220;2022-09-12T16:51:43;27.60;83.70
58469;DHT22;44257;44.804;10.220;2022-09-12T16:54:15;27.50;83.60
58469;DHT22;44257;44.804;10.220;2022-09-12T16:56:42;27.50;84.40
58469;DHT22;44257;44.804;10.220;2022-09-12T16:59:09;27.30;84.20
58469;DHT22;44257;44.804;10.220;2022-09-12T17:01:38;27.20;84.00
58469;DHT22;44257;44.804;10.220;2022-09-12T17:04:04;27.10;83.70
58469;DHT22;44257;44.804;10.220;2022-09-12T17:06:32;27.00;84.50
58469;DHT22;44257;44.804;10.220;2022-09-12T17:08:59;26.90;84.00
58469;DHT22;44257;44.804;10.220;2022-09-12T17:11:28;26.70;83.00
58469;DHT22;44257;44.804;10.220;2022-09-12T17:13:59;26.60;83.00
58469;DHT22;44257;44.804;10.220;2022-09-12T17:16:26;26.50;83.10
58469;DHT22;44257;44.804;10.220;2022-09-12T17:18:52;26.40;83.40
58469;DHT22;44257;44.804;10.220;2022-09-12T17:21:19;26.30;83.50
58469;DHT22;44257;44.804;10.220;2022-09-12T17:23:46;26.20;83.60
58469;DHT22;44257;44.804;10.220;2022-09-12T17:26:12;26.00;84.70
58469;DHT22;44257;44.804;10.220;2022-09-12T17:28:38;25.90;85.10
58469;DHT22;44257;44.804;10.220;2022-09-12T17:31:07;25.80;85.40
58469;DHT22;44257;44.804;10.220;2022-09-12T17:33:33;25.70;84.70
58469;DHT22;44257;44.804;10.220;2022-09-12T17:36:04;25.60;86.40
58469;DHT22;44257;44.804;10.220;2022-09-12T17:38:31;25.50;87.20
58469;DHT22;44257;44.804;10.220;2022-09-12T17:41:18;25.40;87.50
58469;DHT22;44257;44.804;10.220;2022-09-12T17:43:46;25.20;87.60
58469;DHT22;44257;44.804;10.220;2022-09-12T17:46:15;25.10;87.90
58469;DHT22;44257;44.804;10.220;2022-09-12T17:48:41;24.90;88.10
58469;DHT22;44257;44.804;10.220;2022-09-12T17:51:12;24.80;88.20
58469;DHT22;44257;44.804;10.220;2022-09-12T17:53:42;24.70;88.60
58469;DHT22;44257;44.804;10.220;2022-09-12T17:56:09;24.60;89.00
58469;DHT22;44257;44.804;10.220;2022-09-12T17:58:35;24.50;89.40
58469;DHT22;44257;44.804;10.220;2022-09-12T18:01:05;24.40;89.50
58469;DHT22;44257;44.804;10.220;2022-09-12T18:03:54;24.30;90.00
58469;DHT22;44257;44.804;10.220;2022-09-12T18:06:21;24.20;90.20
58469;DHT22;44257;44.804;10.220;2022-09-12T18:08:47;24.10;90.30
58469;DHT22;44257;44.804;10.220;2022-09-12T18:11:13;24.10;90.50
58469;DHT22;44257;44.804;10.220;2022-09-12T18:13:39;24.00;90.70
58469;DHT22;44257;44.804;10.220;2022-09-12T18:16:08;23.90;90.90
58469;DHT22;44257;44.804;10.220;2022-09-12T18:18:35;23.80;91.10
58469;DHT22;44257;44.804;10.220;2022-09-12T18:21:05;23.80;91.30
58469;DHT22;44257;44.804;10.220;2022-09-12T18:23:31;23.70;91.80
58469;DHT22;44257;44.804;10.220;2022-09-12T18:26:06;23.70;91.90
58469;DHT22;44257;44.804;10.220;2022-09-12T18:28:33;23.60;92.40